PHVHP EHLE-EHAL

Flight info

Callsign PHVHP
Flight time N/A
Altitude 3000
Route DCT
Aircraft P28B/L-SDGRY/S

Departure

Time 2026-04-11 19:40
Airport Lelystad Airport (EHLE)

Arrival

Time N/A
Airport EHAL
Time Latitude Longitude Altitude Speed Heading
2026-04-11 19:17 52.45602 5.52439 -9 ft 0 kts 316°
2026-04-11 19:35 52.45621 5.52426 -9 ft 13 kts 358°
2026-04-11 19:36 52.45703 5.52534 -9 ft 16 kts 47°
2026-04-11 19:36 52.45785 5.52575 -9 ft 14 kts 316°
2026-04-11 19:36 52.45807 5.52543 -9 ft 0 kts 315°
2026-04-11 19:39 52.45822 5.52519 -9 ft 15 kts 318°
2026-04-11 19:39 52.45829 5.52364 -7 ft 22 kts 229°
2026-04-11 19:40 52.45584 5.51935 55 ft 71 kts 227°
2026-04-11 19:40 52.45202 5.51293 296 ft 84 kts 227°
2026-04-11 19:40 52.44784 5.50621 633 ft 85 kts 227°
2026-04-11 19:40 52.44354 5.49908 915 ft 91 kts 226°
2026-04-11 19:41 52.43910 5.49139 1153 ft 93 kts 226°
2026-04-11 19:41 52.43389 5.48566 1440 ft 94 kts 197°
2026-04-11 19:41 52.42830 5.49068 1733 ft 106 kts 130°
2026-04-11 19:41 52.42676 5.50310 1906 ft 124 kts 85°
2026-04-11 19:42 52.42959 5.51690 2083 ft 130 kts 69°
2026-04-11 19:42 52.43288 5.53081 2221 ft 134 kts 89°
2026-04-11 19:42 52.42914 5.54385 2319 ft 122 kts 147°
2026-04-11 19:42 52.42299 5.55287 2415 ft 128 kts 149°
2026-04-11 19:43 52.41616 5.56207 2567 ft 124 kts 151°
2026-04-11 19:43 52.41190 5.56776 2678 ft 112 kts 151°
2026-04-11 19:43 52.40623 5.57562 2786 ft 104 kts 151°
2026-04-11 19:43 52.40027 5.58376 2725 ft 109 kts 151°
2026-04-11 19:44 52.39494 5.59191 2828 ft 108 kts 135°
2026-04-11 19:44 52.39797 5.60064 2604 ft 124 kts 19°
2026-04-11 19:44 52.40133 5.61302 2577 ft 130 kts 101°
2026-04-11 19:44 52.39718 5.62655 2303 ft 139 kts 133°
2026-04-11 19:45 52.39142 5.63898 2316 ft 128 kts 140°
2026-04-11 19:45 52.38571 5.64945 2422 ft 121 kts 143°
2026-04-11 19:45 52.38009 5.65932 2497 ft 117 kts 146°
2026-04-11 19:45 52.37442 5.66876 2564 ft 116 kts 148°
2026-04-11 19:46 52.36867 5.67791 2629 ft 115 kts 149°
2026-04-11 19:46 52.36389 5.68873 2658 ft 125 kts 119°
2026-04-11 19:46 52.36465 5.70317 2686 ft 132 kts 70°
2026-04-11 19:46 52.37065 5.71301 2706 ft 121 kts
2026-04-11 19:47 52.37853 5.71245 2803 ft 109 kts 336°
2026-04-11 19:47 52.38617 5.71145 2906 ft 113 kts 354°
2026-04-11 19:47 52.39396 5.71238 2989 ft 112 kts 354°
2026-04-11 19:47 52.40176 5.71334 3053 ft 112 kts 354°
2026-04-11 19:48 52.40956 5.71434 3127 ft 113 kts 354°
2026-04-11 19:48 52.41691 5.71546 3365 ft 97 kts 354°
2026-04-11 19:48 52.42327 5.71681 3573 ft 89 kts 354°
2026-04-11 19:48 52.42927 5.71826 3737 ft 86 kts 354°
2026-04-11 19:49 52.43512 5.71979 3898 ft 84 kts 354°
2026-04-11 19:49 52.44087 5.72140 4029 ft 83 kts 354°
2026-04-11 19:49 52.44654 5.72308 4166 ft 83 kts 354°
2026-04-11 19:49 52.45215 5.72481 4300 ft 82 kts 354°
2026-04-11 19:50 52.45772 5.72660 4428 ft 81 kts 354°
2026-04-11 19:50 52.46326 5.72842 4539 ft 81 kts 354°
2026-04-11 19:50 52.46878 5.73030 4647 ft 81 kts 354°
2026-04-11 19:50 52.47433 5.73223 4746 ft 81 kts 354°
2026-04-11 19:51 52.47988 5.73417 4841 ft 82 kts 354°
2026-04-11 19:51 52.48546 5.73620 4939 ft 82 kts 354°
2026-04-11 19:51 52.49138 5.73823 4996 ft 100 kts 354°
2026-04-11 19:51 52.49912 5.74009 5066 ft 124 kts 354°
2026-04-11 19:52 52.50845 5.74160 5047 ft 146 kts 354°
2026-04-11 19:52 52.51907 5.74299 4993 ft 158 kts 354°
2026-04-11 19:52 52.53021 5.74441 4977 ft 162 kts 354°
2026-04-11 19:52 52.54161 5.74587 4976 ft 162 kts 354°
2026-04-11 19:53 52.55288 5.74728 4978 ft 162 kts 354°
2026-04-11 19:53 52.56414 5.74864 4978 ft 162 kts 354°
2026-04-11 19:53 52.57541 5.75002 4976 ft 163 kts 354°
2026-04-11 19:53 52.58668 5.75141 4977 ft 163 kts 354°
2026-04-11 19:54 52.59799 5.75280 4978 ft 163 kts 354°
2026-04-11 19:54 52.60929 5.75423 4979 ft 163 kts 354°
2026-04-11 19:54 52.62057 5.75565 4979 ft 162 kts 354°
2026-04-11 19:54 52.63187 5.75708 4974 ft 163 kts 354°
2026-04-11 19:55 52.64317 5.75852 4977 ft 163 kts 354°
2026-04-11 19:55 52.65446 5.75995 4976 ft 162 kts 354°
2026-04-11 19:55 52.66570 5.76145 4976 ft 162 kts 354°
2026-04-11 19:55 52.67696 5.76296 4976 ft 162 kts 354°
2026-04-11 19:56 52.68820 5.76438 4980 ft 162 kts 354°
2026-04-11 19:56 52.69932 5.76575 4981 ft 162 kts 354°
2026-04-11 19:56 52.71060 5.76713 4981 ft 162 kts 354°
2026-04-11 19:56 52.72189 5.76852 4981 ft 163 kts 354°
2026-04-11 19:57 52.73318 5.76992 4981 ft 163 kts 354°
2026-04-11 19:57 52.74445 5.77144 4981 ft 162 kts 354°
2026-04-11 19:57 52.75567 5.77302 4981 ft 162 kts 354°
2026-04-11 19:57 52.76686 5.77460 4981 ft 162 kts 354°
2026-04-11 19:58 52.77808 5.77618 4982 ft 162 kts 354°
2026-04-11 19:58 52.78928 5.77775 4981 ft 162 kts 354°
2026-04-11 19:58 52.80049 5.77923 4981 ft 162 kts 354°
2026-04-11 19:58 52.81170 5.78068 4981 ft 162 kts 354°
2026-04-11 19:59 52.82292 5.78219 4979 ft 162 kts 354°
2026-04-11 19:59 52.83413 5.78372 4979 ft 162 kts 354°
2026-04-11 19:59 52.84535 5.78560 4985 ft 163 kts 358°
2026-04-11 19:59 52.85659 5.78893 4978 ft 165 kts
2026-04-11 20:00 52.86780 5.79336 4999 ft 167 kts
2026-04-11 20:00 52.87909 5.79809 4985 ft 168 kts
2026-04-11 20:00 52.89046 5.80283 4984 ft 168 kts
2026-04-11 20:00 52.90181 5.80762 4984 ft 169 kts
2026-04-11 20:01 52.91321 5.81235 4985 ft 169 kts
2026-04-11 20:01 52.92461 5.81713 4982 ft 169 kts
2026-04-11 20:01 52.93602 5.82195 4983 ft 170 kts
2026-04-11 20:01 52.94747 5.82675 4982 ft 169 kts
2026-04-11 20:02 52.95889 5.83156 4982 ft 169 kts
2026-04-11 20:02 52.97029 5.83634 4981 ft 169 kts
2026-04-11 20:02 52.98168 5.84104 4980 ft 168 kts
2026-04-11 20:02 52.99303 5.84573 4980 ft 168 kts
2026-04-11 20:03 53.00440 5.85043 4980 ft 168 kts
2026-04-11 20:03 53.01578 5.85514 4980 ft 169 kts
2026-04-11 20:03 53.02720 5.85990 4981 ft 169 kts
2026-04-11 20:03 53.03860 5.86468 4981 ft 169 kts
2026-04-11 20:04 53.05003 5.86949 4981 ft 169 kts
2026-04-11 20:04 53.06142 5.87400 4980 ft 167 kts
2026-04-11 20:04 53.07282 5.87737 4979 ft 166 kts 359°
2026-04-11 20:04 53.08419 5.88065 4980 ft 166 kts 359°
2026-04-11 20:05 53.09558 5.88394 4980 ft 167 kts 359°
2026-04-11 20:05 53.10700 5.88723 4980 ft 166 kts 359°
2026-04-11 20:05 53.11846 5.89050 4977 ft 167 kts 359°
2026-04-11 20:05 53.12997 5.89365 4976 ft 168 kts 359°
2026-04-11 20:06 53.14147 5.89623 4978 ft 164 kts 353°
2026-04-11 20:06 53.15283 5.89674 4978 ft 163 kts 349°
2026-04-11 20:06 53.16415 5.89686 5004 ft 163 kts 349°
2026-04-11 20:06 53.17552 5.89696 5004 ft 163 kts 349°
2026-04-11 20:07 53.18690 5.89708 5005 ft 163 kts 349°
2026-04-11 20:07 53.19822 5.89706 5005 ft 162 kts 347°
2026-04-11 20:07 53.20938 5.89716 5005 ft 163 kts 349°
2026-04-11 20:07 53.22074 5.89729 5005 ft 163 kts 349°
2026-04-11 20:08 53.23208 5.89732 5006 ft 163 kts 349°
2026-04-11 20:08 53.24339 5.89733 5005 ft 162 kts 349°
2026-04-11 20:08 53.25484 5.89734 5006 ft 162 kts 349°
2026-04-11 20:08 53.26597 5.89736 5004 ft 162 kts 349°
2026-04-11 20:09 53.27735 5.89739 5000 ft 161 kts 349°
2026-04-11 20:09 53.28855 5.89741 4999 ft 161 kts 349°
2026-04-11 20:09 53.29973 5.89742 4998 ft 161 kts 349°
2026-04-11 20:09 53.31089 5.89741 4994 ft 159 kts 348°
2026-04-11 20:10 53.32090 5.89266 4984 ft 146 kts 323°
2026-04-11 20:10 53.32390 5.89029 4986 ft 146 kts 323°
2026-04-11 20:11 53.35934 5.85800 3860 ft 164 kts 314°
2026-04-11 20:11 53.36786 5.84564 3472 ft 161 kts 309°
2026-04-11 20:11 53.37598 5.83267 3092 ft 161 kts 309°
2026-04-11 20:11 53.38401 5.81956 2710 ft 161 kts 309°
2026-04-11 20:12 53.39170 5.80596 2342 ft 160 kts 304°
2026-04-11 20:12 53.39812 5.79111 2021 ft 157 kts 299°
2026-04-11 20:12 53.40406 5.77637 2003 ft 146 kts 299°
2026-04-11 20:12 53.40964 5.76254 1998 ft 141 kts 299°
2026-04-11 20:13 53.41516 5.74872 1727 ft 139 kts 299°
2026-04-11 20:13 53.42036 5.73567 1428 ft 134 kts 300°
2026-04-11 20:13 53.42548 5.72258 1105 ft 135 kts 299°
2026-04-11 20:13 53.43042 5.70967 1001 ft 126 kts 300°
2026-04-11 20:14 53.43498 5.69759 988 ft 113 kts 300°
2026-04-11 20:14 53.43867 5.68790 968 ft 89 kts 303°
2026-04-11 20:14 53.44365 5.68282 963 ft 78 kts 326°
2026-04-11 20:14 53.44845 5.68013 961 ft 72 kts 338°
2026-04-11 20:15 53.45327 5.67840 973 ft 73 kts 338°
2026-04-11 20:15 53.45875 5.67623 992 ft 89 kts 339°
2026-04-11 20:15 53.46557 5.67786 989 ft 111 kts 25°
2026-04-11 20:15 53.47048 5.68838 997 ft 122 kts 70°
2026-04-11 20:16 53.46964 5.70253 941 ft 128 kts 122°
2026-04-11 20:16 53.46259 5.71066 797 ft 123 kts 182°
2026-04-11 20:16 53.45606 5.70526 549 ft 96 kts 239°
2026-04-11 20:16 53.45450 5.69606 276 ft 82 kts 273°
2026-04-11 20:17 53.45370 5.68695 102 ft 72 kts 250°
2026-04-11 20:17 53.45350 5.67991 21 ft 52 kts 279°
2026-04-11 20:17 53.45347 5.67478 17 ft 34 kts 270°
2026-04-11 20:17 53.45350 5.67158 13 ft 22 kts 270°
2026-04-11 20:18 53.45312 5.67136 13 ft 4 kts 128°
2026-04-11 20:18 53.45266 5.67235 14 ft 17 kts 126°
2026-04-11 20:18 53.45204 5.67384 12 ft 16 kts 125°
2026-04-11 20:18 53.45151 5.67519 12 ft 13 kts 121°
2026-04-11 20:19 53.45140 5.67647 12 ft 12 kts 88°
2026-04-11 20:19 53.45136 5.67838 13 ft 27 kts 94°
2026-04-11 20:19 53.45127 5.68136 13 ft 23 kts 94°
2026-04-11 20:19 53.45111 5.68377 14 ft 19 kts 97°
2026-04-11 20:20 53.45052 5.68496 15 ft 11 kts 195°
2026-04-11 20:20 53.44999 5.68454 14 ft 8 kts 220°
2026-04-11 20:20 53.44957 5.68405 14 ft 6 kts 246°
2026-04-11 20:20 53.44973 5.68397 13 ft 0 kts 14°